METAR Data
IDs: Format: Raw Decoded Include TAF

Data at: 0724 UTC 07 Apr 2020

KIAD 070652Z 12004KT 10SM FEW070 OVC090 11/05 A2996 RMK AO2 PRESFR SLP145 T01110050

KIAD 070520Z 0706/0812 00000KT P6SM SCT090 BKN130
  FM071900 25005KT 6SM -SHRA SCT030 OVC090
  FM080000 22006KT P6SM SCT008 OVC050
  FM080700 23005KT 6SM BR SCT001 BKN030
  FM081100 24006KT 6SM BR SCT001 BKN060